To NAV CANADA Home Page Login to a new session Search on AWWS site Feedback and Comments Disclaimer Vers la page française équivalente Tips FAQ What's new on the site To the Forecasts and Observations / NOTAM section To "File a Flight Plan" website Publications and other links Update of the User's profile FIC Telephone Numbers My Weather Data Folder Route Weather Data Regional Weather Data Local Weather Data To the Forecasts and Observations / NOTAM section
Request Generated 08/22/2017 at 03:34:39 UTC . Weather information available at that time is displayed.

METAR/TAF

HAY RIVER/MERLYN CARTER AIRPORT/NT    

METAR CYHY 220300Z 00000KT 15SM FEW075 SCT230 11/11 A2999 RMK AC2CI2
SLP163=
METAR CYHY 220200Z 34002KT 15SM FEW010 SCT073 SCT230 12/11 A2998 RMK
SC1AC2CI1 SLP161=
METAR CYHY 220100Z 33004KT 290V360 15SM FEW010 BKN074 BKN230 14/11
A2998 RMK SC2AC3CI1 SLP161=

TAF CYHY 212338Z 2200/2212 30008KT P6SM BKN015 OVC060 TEMPO 2200/2208
P6SM -SHRA SCT015 BKN060 OVC230
BECMG 2200/2202 VRB03KT
FM220800 VRB03KT P6SM SCT008
RMK NXT FCST BY 220600Z=
Your time UTC time
Weather data provided by Environment Canada and NAV CANADA